Wetterdaten: Februar 2010
Datum Temp. A. Feuchte A. Luftdruck Regen Wind Richtung Taupunkt Windchill Windben
01.02.2010 -1,0 C 83 % 1014,0 hPa 0,0 l/m 14,7 km/h SW -3,5 C -8,1 C 14,7 km/h
02.02.2010 2,5 C 77 % 1013,8 hPa 1,8 l/m 22,0 km/h S-SW -1,2 C -6,4 C 22,0 km/h
03.02.2010 5,4 C 82 % 1013,4 hPa 0,0 l/m 14,6 km/h SW 2,6 C -0,1 C 14,6 km/h
04.02.2010 3,9 C 83 % 1010,8 hPa 0,0 l/m 0,3 km/h NO 1,0 C 3,9 C 0,3 km/h
05.02.2010 4,6 C 93 % 1007,9 hPa 5,3 l/m 0,0 km/h O-NO 3,5 C 4,6 C 0,0 km/h
06.02.2010 4,6 C 88 % 1011,2 hPa 0,0 l/m 1,6 km/h O-SO 2,5 C 4,6 C 1,6 km/h
07.02.2010 1,6 C 92 % 1015,0 hPa 0,4 l/m 0,0 km/h O-NO 0,4 C 1,6 C 0,0 km/h
08.02.2010 0,1 C 86 % 1004,0 hPa 0,0 l/m 0,6 km/h NO -2,2 C 0,1 C 0,6 km/h
09.02.2010 -0,5 C 87 % 1001,0 hPa 0,0 l/m 0,6 km/h W-SW -2,5 C -0,5 C 0,6 km/h
10.02.2010 -4,3 C 78 % 1005,8 hPa 0,0 l/m 0,0 km/h W-NW -7,7 C -4,3 C 0,0 km/h
11.02.2010 -4,5 C 87 % 1004,3 hPa 0,0 l/m 0,6 km/h NW -6,4 C -4,5 C 0,6 km/h
12.02.2010 -2,3 C 84 % 1011,7 hPa 0,4 l/m 0,3 km/h W -4,7 C -2,3 C 0,3 km/h
13.02.2010 -2,4 C 87 % 1012,2 hPa 0,0 l/m 0,0 km/h W -4,3 C -2,4 C 0,0 km/h
14.02.2010 -2,4 C 83 % 1010,8 hPa 0,0 l/m 0,0 km/h W -5,0 C -2,4 C 0,0 km/h
15.02.2010 -2,0 C 76 % 1005,8 hPa 1,1 l/m 0,6 km/h SO -5,9 C -2,0 C 0,6 km/h
16.02.2010 -2,5 C 79 % 999,2 hPa 0,0 l/m 0,0 km/h NO -6,0 C -2,5 C 0,0 km/h
17.02.2010 1,0 C 88 % 993,1 hPa 1,1 l/m 0,0 km/h O-NO -0,8 C 1,0 C 0,0 km/h
18.02.2010 3,5 C 90 % 998,0 hPa 0,0 l/m 1,2 km/h O-NO 1,9 C 3,5 C 1,2 km/h
19.02.2010 2,2 C 94 % 995,4 hPa 5,3 l/m 0,0 km/h NO 1,3 C 2,2 C 0,0 km/h
20.02.2010 2,2 C 84 % 1000,8 hPa 0,0 l/m 9,7 km/h O-NO -0,3 C -1,5 C 9,7 km/h
21.02.2010 4,8 C 75 % 999,1 hPa 0,0 l/m 4,3 km/h O-NO 0,5 C 4,4 C 4,3 km/h
22.02.2010 8,4 C 73 % 993,4 hPa 0,0 l/m 6,7 km/h NO 3,5 C 6,5 C 6,7 km/h
23.02.2010 10,5 C 74 % 996,7 hPa 0,0 l/m 9,3 km/h SW 6,0 C 8,2 C 9,3 km/h
24.02.2010 9,3 C 76 % 1001,8 hPa 0,4 l/m 13,1 km/h S-SW 5,1 C 4,9 C 13,1 km/h
25.02.2010 10,4 C 72 % 997,4 hPa 1,4 l/m 11,0 km/h S-SO 5,3 C 7,2 C 11,0 km/h
26.02.2010 5,5 C 76 % 1001,9 hPa 1,1 l/m 9,9 km/h SW 1,5 C 2,3 C 9,9 km/h
27.02.2010 10,0 C 53 % 999,9 hPa 0,0 l/m 8,4 km/h SW 0,2 C 7,9 C 8,4 km/h
28.02.2010 9,4 C 67 % 997,6 hPa 0,7 l/m 10,9 km/h W-SW 3,2 C 6,5 C 10,9 km/h
Min-Datum 16.02.10 27.02.10 28.02.10 11 Tage 01.02.10 - 16.02.10 01.02.10 01.02.10
Min-Zeit 07:53 14:53 05:53 - 00:53 - 07:53 16:53 00:53
Minimum -9,6 C 33 % 987,4 hPa - 0,0 km/h - -11,1 C -14,4 C 0,0 km/h
Max-Datum 27.02.10 06.02.10 02.02.10 05.02.10 03.02.10 - 23.02.10 27.02.10 03.02.10
Max-Zeit 14:53 03:53 03:53 18:53 06:53 - 16:53 14:53 06:53
Maximum 17,9 C 95 % 1019,0 hPa 5,3 l/m 40,0 km/h
SW
- 8,5 C 17,9 C 40,0 km/h
SW
Durchschnitt 2,8 C 81 % 1004,1 hPa #18,9 l/m 5,0 km/h SW -0,4 C 1,2 C 5,0 km/h

Durchschnitt Minimum Temp.-0,8 C
Durchschnitt Maximum Temp.8,2 C